createdAt,value
2023-04-24T00:02:14.055Z,8.43
2023-04-24T00:04:45.884Z,8.90
2023-04-24T00:07:13.894Z,8.50
2023-04-24T00:09:41.904Z,8.77
2023-04-24T00:12:11.349Z,8.70
2023-04-24T00:14:39.302Z,8.93
2023-04-24T00:17:07.162Z,8.73
2023-04-24T00:19:35.031Z,9.73
2023-04-24T00:22:03.581Z,8.97
2023-04-24T00:24:31.825Z,9.20
2023-04-24T00:27:00.313Z,8.90
2023-04-24T00:29:30.309Z,9.03
2023-04-24T00:31:58.173Z,8.93
2023-04-24T00:34:26.222Z,9.47
2023-04-24T00:36:54.089Z,9.33
2023-04-24T00:39:21.979Z,9.37
2023-04-24T00:41:50.129Z,8.60
2023-04-24T00:44:18.012Z,8.90
2023-04-24T00:46:48.156Z,8.90
2023-04-24T00:49:16.320Z,8.70
2023-04-24T00:51:46.578Z,8.63
2023-04-24T00:54:14.425Z,9.20
2023-04-24T00:56:42.475Z,8.70
2023-04-24T00:59:10.645Z,8.60
2023-04-24T01:01:38.616Z,8.80
2023-04-24T01:04:08.628Z,8.07
2023-04-24T01:06:36.855Z,8.77
2023-04-24T01:09:04.713Z,8.93
2023-04-24T01:11:32.749Z,8.93
2023-04-24T01:14:03.235Z,8.60
2023-04-24T01:16:31.164Z,8.43
2023-04-24T01:18:59.128Z,9.00
2023-04-24T01:21:29.691Z,8.80
2023-04-24T01:23:58.952Z,8.30
2023-04-24T01:26:26.729Z,8.13
2023-04-24T01:28:54.596Z,7.87
2023-04-24T01:31:24.769Z,8.97
2023-04-24T01:33:53.125Z,8.83
2023-04-24T01:36:21.398Z,7.83
2023-04-24T01:38:49.378Z,8.60
2023-04-24T01:41:18.542Z,8.83
2023-04-24T01:43:46.498Z,8.60
2023-04-24T01:46:14.655Z,8.40
2023-04-24T01:48:42.458Z,8.73
2023-04-24T01:51:10.214Z,8.13
2023-04-24T01:53:38.056Z,8.37
2023-04-24T01:56:06.224Z,8.23
2023-04-24T01:58:35.398Z,8.13
2023-04-24T02:01:03.199Z,7.83
2023-04-24T02:03:31.494Z,8.13
2023-04-24T02:05:59.647Z,8.20
2023-04-24T02:08:27.367Z,7.97
2023-04-24T02:10:55.072Z,7.63
2023-04-24T02:13:22.894Z,8.23
2023-04-24T02:15:52.079Z,7.50
2023-04-24T02:18:19.891Z,8.40
2023-04-24T02:20:47.672Z,8.17
2023-04-24T02:23:15.719Z,7.87
2023-04-24T02:25:43.535Z,8.00
2023-04-24T02:28:11.363Z,7.83
2023-04-24T02:30:39.192Z,8.07
2023-04-24T02:33:08.340Z,7.70
2023-04-24T02:35:36.045Z,7.73
2023-04-24T02:38:04.193Z,8.07
2023-04-24T02:40:32.165Z,8.30
2023-04-24T02:42:59.951Z,7.77
2023-04-24T02:45:27.745Z,8.03
2023-04-24T02:47:55.580Z,8.23
2023-04-24T02:50:24.757Z,8.40
2023-04-24T02:52:52.546Z,8.80
2023-04-24T02:55:20.368Z,8.43
2023-04-24T02:57:48.057Z,7.60
2023-04-24T03:00:16.298Z,8.30
2023-04-24T03:02:44.100Z,7.73
2023-04-24T03:05:12.905Z,8.10
2023-04-24T03:07:42.092Z,8.17
2023-04-24T03:10:10.571Z,7.73
2023-04-24T03:12:38.381Z,7.77
2023-04-24T03:15:06.828Z,7.87
2023-04-24T03:17:34.599Z,7.63
2023-04-24T03:20:02.281Z,7.63
2023-04-24T03:22:30.099Z,7.47
2023-04-24T03:24:59.235Z,7.90
2023-04-24T03:27:26.964Z,8.13
2023-04-24T03:29:56.331Z,8.13
2023-04-24T03:32:25.594Z,7.97
2023-04-24T03:34:53.572Z,8.23
2023-04-24T03:37:21.333Z,7.43
2023-04-24T03:39:49.109Z,7.73
2023-04-24T03:42:18.201Z,8.17
2023-04-24T03:44:46.009Z,7.50
2023-04-24T03:47:14.027Z,8.17
2023-04-24T03:49:41.962Z,7.07
2023-04-24T03:52:09.971Z,7.30
2023-04-24T03:54:38.911Z,7.53
2023-04-24T03:57:06.766Z,7.53
2023-04-24T03:59:36.102Z,7.57
2023-04-24T04:02:03.965Z,7.27
2023-04-24T04:04:32.040Z,7.20
2023-04-24T04:07:02.083Z,6.67
2023-04-24T04:09:29.820Z,7.90
2023-04-24T04:11:57.650Z,7.60
2023-04-24T04:14:25.453Z,7.43
2023-04-24T04:16:55.097Z,8.40
2023-04-24T04:19:22.979Z,7.13
2023-04-24T04:21:53.942Z,6.57
2023-04-24T04:24:23.545Z,6.87
2023-04-24T04:26:52.327Z,7.50
2023-04-24T04:29:20.416Z,6.67
2023-04-24T04:31:48.303Z,7.10
2023-04-24T04:34:17.561Z,7.93
2023-04-24T04:36:47.361Z,7.40
2023-04-24T04:39:16.096Z,7.37
2023-04-24T04:41:43.837Z,7.33
2023-04-24T04:44:11.730Z,6.87
2023-04-24T04:46:39.571Z,7.87
2023-04-24T04:49:07.343Z,7.07
2023-04-24T04:51:36.587Z,7.03
2023-04-24T04:54:04.553Z,7.20
2023-04-24T04:56:33.035Z,6.57
2023-04-24T04:59:00.966Z,7.23
2023-04-24T05:01:29.498Z,6.83
2023-04-24T05:03:57.426Z,6.80
2023-04-24T05:06:25.334Z,8.60
2023-04-24T05:08:58.457Z,7.47
2023-04-24T05:11:26.401Z,6.80
2023-04-24T05:13:54.286Z,6.20
2023-04-24T05:16:22.551Z,6.40
2023-04-24T05:18:50.936Z,6.70
2023-04-24T05:21:18.813Z,6.37
2023-04-24T05:23:46.575Z,6.73
2023-04-24T05:26:16.505Z,6.10
2023-04-24T05:28:44.298Z,6.60
2023-04-24T05:31:13.441Z,7.17
2023-04-24T05:33:41.274Z,6.53
2023-04-24T05:36:09.302Z,9.03
2023-04-24T05:38:37.472Z,7.53
2023-04-24T05:41:05.435Z,7.37
2023-04-24T05:43:34.573Z,7.07
2023-04-24T05:46:02.450Z,6.67
2023-04-24T05:48:30.262Z,5.83
2023-04-24T05:50:58.000Z,7.83
2023-04-24T05:53:25.777Z,5.87
2023-04-24T05:55:53.584Z,6.00
2023-04-24T05:58:21.366Z,5.77
2023-04-24T06:00:50.840Z,7.10
2023-04-24T06:03:18.886Z,6.40
2023-04-24T06:05:46.822Z,6.53
2023-04-24T06:08:14.650Z,6.90
2023-04-24T06:10:42.469Z,5.60
2023-04-24T06:13:10.801Z,6.70
2023-04-24T06:15:39.173Z,6.53
2023-04-24T06:18:08.384Z,6.17
2023-04-24T06:20:36.182Z,6.13
2023-04-24T06:23:03.998Z,5.77
2023-04-24T06:25:31.959Z,6.47
2023-04-24T06:27:59.750Z,5.40
2023-04-24T06:30:28.202Z,5.73
2023-04-24T06:33:00.726Z,6.87
2023-04-24T06:35:35.236Z,5.60
2023-04-24T06:38:03.025Z,5.60
2023-04-24T06:40:31.101Z,5.83
2023-04-24T06:43:01.079Z,5.90
2023-04-24T06:45:29.035Z,5.83
2023-04-24T06:47:56.953Z,6.13
2023-04-24T06:50:24.783Z,6.37
2023-04-24T06:52:53.973Z,6.27
2023-04-24T06:55:23.293Z,6.60
2023-04-24T06:57:52.470Z,6.03
2023-04-24T07:00:20.773Z,6.60
2023-04-24T07:02:48.887Z,6.23
2023-04-24T07:05:16.901Z,6.43
2023-04-24T07:07:45.883Z,7.10
2023-04-24T07:10:15.455Z,6.83
2023-04-24T07:12:43.343Z,6.23
2023-04-24T07:15:11.901Z,5.93
2023-04-24T07:17:44.430Z,8.27
2023-04-24T07:20:13.372Z,6.10
2023-04-24T07:22:41.527Z,5.43
2023-04-24T07:25:10.230Z,6.07
2023-04-24T07:27:39.368Z,6.77
2023-04-24T07:30:08.360Z,6.30
2023-04-24T07:32:38.291Z,7.70
2023-04-24T07:35:06.893Z,6.00
2023-04-24T07:37:34.718Z,5.20
2023-04-24T07:40:02.698Z,6.33
2023-04-24T07:42:31.529Z,5.30
2023-04-24T07:45:01.208Z,5.37
2023-04-24T07:47:29.126Z,5.57
2023-04-24T07:49:57.039Z,5.63
2023-04-24T07:52:25.516Z,7.57
2023-04-24T07:54:59.313Z,7.17
2023-04-24T07:57:27.329Z,7.17
2023-04-24T07:59:55.201Z,7.50
2023-04-24T08:02:27.517Z,7.00
2023-04-24T08:04:55.970Z,8.03
2023-04-24T08:07:25.084Z,8.40
2023-04-24T08:09:52.989Z,6.87
2023-04-24T08:12:20.745Z,6.00
2023-04-24T08:14:48.506Z,6.40
2023-04-24T08:17:16.364Z,5.77
2023-04-24T08:19:49.164Z,5.93
2023-04-24T08:22:17.494Z,5.10
2023-04-24T08:24:45.571Z,5.57
2023-04-24T08:27:13.320Z,4.80
2023-04-24T08:29:41.269Z,4.70
2023-04-24T08:32:09.326Z,6.17
2023-04-24T08:34:37.069Z,5.40
2023-04-24T08:37:06.308Z,5.23
2023-04-24T08:39:34.058Z,5.13
2023-04-24T08:42:06.396Z,6.13
2023-04-24T08:44:34.657Z,4.07
2023-04-24T08:47:02.968Z,4.70
2023-04-24T08:49:31.335Z,3.93
2023-04-24T08:52:00.716Z,4.13
2023-04-24T08:54:30.582Z,4.23
2023-04-24T08:57:02.631Z,3.87
2023-04-24T08:59:31.913Z,3.70
2023-04-24T09:02:00.312Z,4.10
2023-04-24T09:04:28.564Z,3.67
2023-04-24T09:06:58.218Z,4.27
2023-04-24T09:09:26.587Z,2.73
2023-04-24T09:11:58.304Z,3.40
2023-04-24T09:14:29.056Z,3.50
2023-04-24T09:16:56.796Z,3.60
2023-04-24T09:19:24.585Z,3.37
2023-04-24T09:21:55.153Z,4.20
2023-04-24T09:24:24.401Z,4.07
2023-04-24T09:27:02.518Z,5.07
2023-04-24T09:29:30.681Z,4.23
2023-04-24T09:31:58.688Z,4.53
2023-04-24T09:34:28.692Z,4.40
2023-04-24T09:36:56.815Z,2.80
2023-04-24T09:39:24.617Z,3.60
2023-04-24T09:41:53.562Z,3.77
2023-04-24T09:44:23.791Z,3.00
2023-04-24T09:46:52.772Z,2.63
2023-04-24T09:49:25.108Z,3.73
2023-04-24T09:51:55.873Z,4.43
2023-04-24T09:54:24.459Z,3.23
2023-04-24T09:56:52.934Z,2.73
2023-04-24T09:59:22.366Z,2.60
2023-04-24T10:01:50.641Z,2.77
2023-04-24T10:04:20.503Z,3.20
2023-04-24T10:06:49.885Z,2.40
2023-04-24T10:09:18.125Z,2.73
2023-04-24T10:11:47.360Z,2.47
2023-04-24T10:14:15.853Z,2.67
2023-04-24T10:16:50.161Z,3.90
2023-04-24T10:19:19.525Z,3.03
2023-04-24T10:21:48.462Z,3.67
2023-04-24T10:24:16.705Z,3.47
2023-04-24T10:26:45.166Z,3.30
2023-04-24T10:29:14.120Z,3.13
2023-04-24T10:31:46.751Z,1.57
2023-04-24T10:34:16.131Z,1.60
2023-04-24T10:36:47.294Z,1.03
2023-04-24T10:39:16.760Z,0.90
2023-04-24T10:41:44.797Z,0.80
2023-04-24T10:44:13.550Z,3.60
2023-04-24T10:46:46.945Z,1.27
2023-04-24T10:49:14.998Z,1.77
2023-04-24T10:51:50.755Z,1.53
2023-04-24T10:54:26.264Z,1.10
2023-04-24T10:56:54.914Z,1.20
2023-04-24T10:59:29.597Z,1.10
2023-04-24T11:01:58.838Z,1.60
2023-04-24T11:04:33.990Z,0.90
2023-04-24T11:07:02.349Z,1.97
2023-04-24T11:09:30.613Z,0.90
2023-04-24T11:12:07.848Z,0.97
2023-04-24T11:15:03.888Z,1.33
2023-04-24T11:17:34.606Z,1.17
2023-04-24T11:20:15.442Z,1.30
2023-04-24T11:22:55.529Z,1.97
2023-04-24T11:25:25.898Z,1.00
2023-04-24T11:28:05.330Z,1.23
2023-04-24T11:30:34.363Z,1.30
2023-04-24T11:33:06.194Z,0.80
2023-04-24T11:35:42.054Z,1.20
2023-04-24T11:38:23.546Z,1.60
2023-04-24T11:40:53.577Z,1.87
2023-04-24T11:43:21.968Z,1.80
2023-04-24T11:45:50.716Z,0.90
2023-04-24T11:48:23.206Z,1.13
2023-04-24T11:50:51.668Z,3.93
2023-04-24T11:53:21.589Z,0.90
2023-04-24T11:55:49.432Z,1.60
2023-04-24T11:58:17.396Z,1.20
2023-04-24T12:00:46.740Z,2.07
2023-04-24T12:03:15.024Z,1.17
2023-04-24T12:05:46.180Z,1.93
2023-04-24T12:08:14.290Z,1.30
2023-04-24T12:10:42.092Z,1.20
2023-04-24T12:13:12.177Z,1.17
2023-04-24T12:15:42.197Z,2.30
2023-04-24T12:18:13.917Z,1.83
2023-04-24T12:20:44.425Z,1.20
2023-04-24T12:23:12.340Z,1.20
2023-04-24T12:25:41.890Z,1.20
2023-04-24T12:28:13.682Z,1.43
2023-04-24T12:30:45.314Z,1.77
2023-04-24T12:33:19.602Z,1.93
2023-04-24T12:35:49.872Z,1.50
2023-04-24T12:38:18.996Z,2.57
2023-04-24T12:40:46.830Z,1.80
2023-04-24T12:43:18.731Z,1.70
2023-04-24T12:45:46.930Z,1.30
2023-04-24T12:48:15.665Z,2.03
2023-04-24T12:50:46.089Z,1.50
2023-04-24T12:53:16.760Z,1.93
2023-04-24T12:55:45.502Z,1.30
2023-04-24T12:58:13.387Z,1.90
2023-04-24T13:00:41.283Z,1.93
2023-04-24T13:03:09.180Z,2.20
2023-04-24T13:05:37.118Z,2.60
2023-04-24T13:08:06.034Z,2.17
2023-04-24T13:10:35.233Z,3.23
2023-04-24T13:13:03.383Z,2.00
2023-04-24T13:15:31.201Z,1.60
2023-04-24T13:17:59.022Z,1.90
2023-04-24T13:20:27.349Z,1.50
2023-04-24T13:22:55.250Z,1.30
2023-04-24T13:25:24.580Z,1.07
2023-04-24T13:27:53.674Z,1.40
2023-04-24T13:30:21.699Z,1.33
2023-04-24T13:32:49.613Z,1.87
2023-04-24T13:35:17.484Z,2.20
2023-04-24T13:37:45.886Z,2.13
2023-04-24T13:40:13.948Z,3.03
2023-04-24T13:42:42.218Z,2.80
2023-04-24T13:45:23.929Z,2.17
2023-04-24T13:47:53.428Z,2.10
2023-04-24T13:50:21.581Z,1.87
2023-04-24T13:52:49.366Z,1.50
2023-04-24T13:55:17.481Z,1.23
2023-04-24T13:57:45.332Z,1.30
2023-04-24T14:00:16.143Z,1.37
2023-04-24T14:02:43.993Z,1.20
2023-04-24T14:05:12.959Z,1.10
2023-04-24T14:07:40.691Z,2.10
2023-04-24T14:10:09.370Z,1.40
2023-04-24T14:12:37.240Z,1.73
2023-04-24T14:15:05.979Z,1.47
2023-04-24T14:17:35.262Z,1.63
2023-04-24T14:20:04.344Z,1.47
2023-04-24T14:22:32.408Z,1.57
2023-04-24T14:25:00.099Z,1.40
2023-04-24T14:27:28.300Z,1.20
2023-04-24T14:29:56.121Z,1.20
2023-04-24T14:32:23.927Z,1.30
2023-04-24T14:34:53.075Z,1.50
2023-04-24T14:37:21.174Z,1.97
2023-04-24T14:39:56.240Z,1.87
2023-04-24T14:42:34.238Z,1.80
2023-04-24T14:45:02.018Z,1.90
2023-04-24T14:47:30.355Z,1.23
2023-04-24T14:50:00.775Z,1.63
2023-04-24T14:52:28.678Z,1.30
2023-04-24T14:54:56.909Z,1.60
2023-04-24T14:57:24.781Z,1.53
2023-04-24T14:59:52.636Z,1.27
2023-04-24T15:02:22.369Z,1.40
2023-04-24T15:04:50.520Z,1.93
2023-04-24T15:07:19.835Z,1.47
2023-04-24T15:09:48.582Z,1.20
2023-04-24T15:12:16.376Z,1.50
2023-04-24T15:14:44.191Z,1.20
2023-04-24T15:17:12.245Z,0.80
2023-04-24T15:19:40.154Z,1.93
2023-04-24T15:22:12.304Z,1.27
2023-04-24T15:24:41.458Z,1.07
2023-04-24T15:27:11.511Z,2.27
2023-04-24T15:29:39.601Z,1.77
2023-04-24T15:32:09.598Z,1.40
2023-04-24T15:34:38.278Z,1.37
2023-04-24T15:37:06.894Z,1.30
2023-04-24T15:39:34.592Z,2.33
2023-04-24T15:42:04.122Z,1.30
2023-04-24T15:44:31.886Z,1.07
2023-04-24T15:47:01.784Z,1.27
2023-04-24T15:49:29.613Z,1.30
2023-04-24T15:51:57.397Z,1.30
2023-04-24T15:54:25.121Z,1.37
2023-04-24T15:56:52.957Z,1.13
2023-04-24T15:59:23.082Z,1.30
2023-04-24T16:01:52.075Z,1.30
2023-04-24T16:04:20.017Z,1.47
2023-04-24T16:06:48.386Z,1.40
2023-04-24T16:09:16.243Z,2.57
2023-04-24T16:11:44.067Z,1.20
2023-04-24T16:14:11.910Z,1.13
2023-04-24T16:16:41.118Z,1.40
2023-04-24T16:19:10.654Z,2.07
2023-04-24T16:21:38.373Z,1.40
2023-04-24T16:26:45.529Z,1.10
2023-04-24T16:29:15.441Z,1.40
2023-04-24T16:31:43.297Z,1.07
2023-04-24T16:34:11.070Z,1.17
2023-04-24T16:36:39.001Z,0.97
2023-04-24T16:39:06.907Z,1.10
2023-04-24T16:41:36.989Z,1.00
2023-04-24T16:44:06.137Z,1.10
2023-04-24T16:46:34.094Z,1.20
2023-04-24T16:49:01.924Z,0.93
2023-04-24T16:51:30.185Z,1.40
2023-04-24T16:53:58.261Z,1.43
2023-04-24T16:56:26.052Z,1.00
2023-04-24T16:58:53.861Z,1.13
2023-04-24T17:01:23.454Z,1.30
2023-04-24T17:03:51.606Z,1.50
2023-04-24T17:06:19.841Z,1.13
2023-04-24T17:08:47.993Z,1.70
2023-04-24T17:11:15.837Z,1.23
2023-04-24T17:13:43.731Z,1.00
2023-04-24T17:16:11.531Z,1.40
2023-04-24T17:18:40.884Z,1.40
2023-04-24T17:21:08.670Z,1.40
2023-04-24T17:23:36.403Z,1.07
2023-04-24T17:26:04.480Z,0.90
2023-04-24T17:28:33.480Z,1.17
2023-04-24T17:31:01.283Z,1.20
2023-04-24T17:33:29.837Z,1.20
2023-04-24T17:35:59.901Z,1.00
2023-04-24T17:38:27.696Z,1.53
2023-04-24T17:40:56.117Z,1.00
2023-04-24T17:43:24.686Z,1.60
2023-04-24T17:45:58.141Z,1.23
2023-04-24T17:48:26.759Z,2.60
2023-04-24T17:50:55.051Z,2.13
2023-04-24T17:53:24.231Z,1.70
2023-04-24T17:55:54.147Z,2.13
2023-04-24T17:58:22.182Z,2.53
2023-04-24T18:00:50.229Z,3.43
2023-04-24T18:03:20.182Z,2.93
2023-04-24T18:05:48.275Z,2.63
2023-04-24T18:08:16.330Z,2.63
2023-04-24T18:10:45.959Z,3.40
2023-04-24T18:13:13.735Z,3.17
2023-04-24T18:15:43.416Z,3.70
2023-04-24T18:18:11.435Z,2.83
2023-04-24T18:20:39.711Z,2.53
2023-04-24T18:23:07.550Z,2.30
2023-04-24T18:25:35.406Z,2.73
2023-04-24T18:28:04.984Z,2.40
2023-04-24T18:30:34.676Z,2.13
2023-04-24T18:33:02.587Z,2.17
2023-04-24T18:35:30.826Z,2.20
2023-04-24T18:37:58.842Z,2.20
2023-04-24T18:40:26.696Z,2.40
2023-04-24T18:42:54.519Z,2.70
2023-04-24T18:45:24.164Z,2.70
2023-04-24T18:47:51.976Z,2.60
2023-04-24T18:50:20.312Z,2.40
2023-04-24T18:52:48.057Z,1.90
2023-04-24T18:55:15.917Z,2.77
2023-04-24T18:57:43.774Z,2.23
2023-04-24T19:00:12.773Z,2.13
2023-04-24T19:02:42.129Z,1.90
2023-04-24T19:05:11.661Z,2.10
2023-04-24T19:07:39.799Z,2.03
2023-04-24T19:10:09.091Z,1.70
2023-04-24T19:12:36.849Z,2.40
2023-04-24T19:15:05.150Z,2.40
2023-04-24T19:17:33.399Z,2.07
2023-04-24T19:20:02.666Z,2.33
2023-04-24T19:22:30.472Z,1.70
2023-04-24T19:24:59.262Z,2.40
2023-04-24T19:27:27.087Z,2.37
2023-04-24T19:29:54.844Z,2.50
2023-04-24T19:32:22.928Z,2.90
2023-04-24T19:34:50.905Z,2.60
2023-04-24T19:37:20.118Z,2.80
2023-04-24T19:39:48.131Z,2.77
2023-04-24T19:42:16.232Z,2.50
2023-04-24T19:44:44.515Z,3.00
2023-04-24T19:47:13.726Z,3.50
2023-04-24T19:49:41.558Z,3.13
2023-04-24T19:52:09.379Z,3.77
2023-04-24T19:54:38.535Z,3.93
2023-04-24T19:57:06.704Z,3.97
2023-04-24T19:59:34.412Z,4.10
2023-04-24T20:02:02.162Z,4.90
2023-04-24T20:04:30.235Z,4.97
2023-04-24T20:06:58.236Z,4.33
2023-04-24T20:09:26.233Z,5.03
2023-04-24T20:11:57.007Z,7.23
2023-04-24T20:14:24.687Z,5.67
2023-04-24T20:16:54.221Z,6.73
2023-04-24T20:19:22.076Z,7.20
2023-04-24T20:21:50.883Z,4.97
2023-04-24T20:24:19.361Z,7.03
2023-04-24T20:26:47.225Z,7.03
2023-04-24T20:29:16.256Z,4.80
2023-04-24T20:31:44.072Z,6.30
2023-04-24T20:34:11.968Z,5.80
2023-04-24T20:36:39.716Z,6.13
2023-04-24T20:39:08.092Z,6.03
2023-04-24T20:41:36.556Z,6.70
2023-04-24T20:44:04.529Z,6.97
2023-04-24T20:46:35.003Z,6.43
2023-04-24T20:49:03.556Z,6.20
2023-04-24T20:51:32.337Z,6.43
2023-04-24T20:54:00.148Z,6.23
2023-04-24T20:56:27.850Z,6.17
2023-04-24T20:58:57.197Z,5.60
2023-04-24T21:01:25.428Z,5.47
2023-04-24T21:03:55.025Z,5.50
2023-04-24T21:06:23.012Z,5.70
2023-04-24T21:08:51.460Z,5.33
2023-04-24T21:11:19.242Z,5.73
2023-04-24T21:13:47.268Z,5.63
2023-04-24T21:16:15.504Z,5.63
2023-04-24T21:18:43.334Z,5.30
2023-04-24T21:21:12.521Z,5.00
2023-04-24T21:23:40.313Z,5.83
2023-04-24T21:26:08.124Z,5.70
2023-04-24T21:28:36.156Z,5.70
2023-04-24T21:31:05.063Z,6.17
2023-04-24T21:33:32.964Z,6.10
2023-04-24T21:36:00.782Z,5.23
2023-04-24T21:38:29.962Z,6.07
2023-04-24T21:40:57.679Z,5.40
2023-04-24T21:43:37.059Z,5.20
2023-04-24T21:46:09.317Z,5.27
2023-04-24T21:48:37.378Z,5.83
2023-04-24T21:51:05.181Z,5.23
2023-04-24T21:53:34.249Z,4.90
2023-04-24T21:56:02.091Z,5.10
2023-04-24T21:58:32.353Z,5.07
2023-04-24T22:01:00.158Z,5.13
2023-04-24T22:03:28.077Z,5.10
2023-04-24T22:05:56.569Z,5.20
2023-04-24T22:08:24.551Z,4.83
2023-04-24T22:10:54.630Z,5.13
2023-04-24T22:13:24.994Z,4.23
2023-04-24T22:15:54.824Z,4.17
2023-04-24T22:18:24.481Z,4.40
2023-04-24T22:20:54.108Z,4.47
2023-04-24T22:23:21.843Z,4.60
2023-04-24T22:25:49.565Z,4.80
2023-04-24T22:28:18.734Z,4.23
2023-04-24T22:30:46.565Z,4.73
2023-04-24T22:33:14.384Z,4.00
2023-04-24T22:35:42.232Z,4.37
2023-04-24T22:38:10.059Z,3.90
2023-04-24T22:40:37.901Z,3.87
2023-04-24T22:43:05.669Z,4.17
2023-04-24T22:45:35.097Z,4.00
2023-04-24T22:48:02.973Z,4.20
2023-04-24T22:50:31.054Z,3.97
2023-04-24T22:52:59.160Z,4.30
2023-04-24T22:55:27.028Z,3.90
2023-04-24T22:57:57.323Z,4.50
2023-04-24T23:00:25.144Z,4.30
2023-04-24T23:02:54.403Z,4.43
2023-04-24T23:05:22.636Z,4.27
2023-04-24T23:07:50.421Z,4.67
2023-04-24T23:10:18.240Z,4.57
2023-04-24T23:12:45.995Z,4.70
2023-04-24T23:15:13.706Z,4.90
2023-04-24T23:17:42.779Z,4.50
2023-04-24T23:20:14.611Z,4.50
2023-04-24T23:22:42.756Z,4.40
2023-04-24T23:25:11.225Z,4.67
2023-04-24T23:27:39.131Z,4.67
2023-04-24T23:30:08.272Z,4.80
2023-04-24T23:32:36.110Z,5.20
2023-04-24T23:35:03.969Z,4.80
2023-04-24T23:37:33.428Z,4.63
2023-04-24T23:40:01.206Z,4.50
2023-04-24T23:42:28.929Z,4.80
2023-04-24T23:44:56.681Z,4.20
2023-04-24T23:47:24.501Z,4.70
2023-04-24T23:49:52.260Z,4.60
2023-04-24T23:52:20.152Z,4.80
2023-04-24T23:54:49.301Z,4.70
2023-04-24T23:57:17.101Z,5.33
2023-04-24T23:59:47.467Z,5.97
